sensor_id;sensor_type;location;lat;lon;timestamp;temperature;humidity
10175;DHT22;18221;38.704;0.152;2023-07-20T00:11:37;27.60;99.90
10175;DHT22;18221;38.704;0.152;2023-07-20T00:14:07;28.50;99.90
10175;DHT22;18221;38.704;0.152;2023-07-20T00:16:35;27.60;99.90
10175;DHT22;18221;38.704;0.152;2023-07-20T00:19:03;27.60;99.90
10175;DHT22;18221;38.704;0.152;2023-07-20T00:21:32;27.60;99.90
10175;DHT22;18221;38.704;0.152;2023-07-20T00:24:01;27.50;99.90
10175;DHT22;18221;38.704;0.152;2023-07-20T00:26:29;27.50;99.90
10175;DHT22;18221;38.704;0.152;2023-07-20T00:28:58;27.50;99.90
10175;DHT22;18221;38.704;0.152;2023-07-20T00:31:27;27.50;99.90
10175;DHT22;18221;38.704;0.152;2023-07-20T00:33:55;27.40;99.90
10175;DHT22;18221;38.704;0.152;2023-07-20T00:36:23;27.40;99.90
10175;DHT22;18221;38.704;0.152;2023-07-20T00:38:51;27.40;99.90
10175;DHT22;18221;38.704;0.152;2023-07-20T00:41:19;27.40;99.90
10175;DHT22;18221;38.704;0.152;2023-07-20T00:43:47;27.40;99.90
10175;DHT22;18221;38.704;0.152;2023-07-20T00:46:17;27.40;99.90
10175;DHT22;18221;38.704;0.152;2023-07-20T00:48:45;27.40;99.90
10175;DHT22;18221;38.704;0.152;2023-07-20T00:51:13;27.40;99.90
10175;DHT22;18221;38.704;0.152;2023-07-20T00:53:42;27.40;99.90
10175;DHT22;18221;38.704;0.152;2023-07-20T00:56:10;27.40;99.90
10175;DHT22;18221;38.704;0.152;2023-07-20T00:58:39;27.40;99.90
10175;DHT22;18221;38.704;0.152;2023-07-20T01:01:07;27.30;99.90
10175;DHT22;18221;38.704;0.152;2023-07-20T01:03:37;27.30;99.90
10175;DHT22;18221;38.704;0.152;2023-07-20T01:06:14;27.30;99.90
10175;DHT22;18221;38.704;0.152;2023-07-20T01:09:04;27.30;99.90
10175;DHT22;18221;38.704;0.152;2023-07-20T01:11:43;27.30;99.90
10175;DHT22;18221;38.704;0.152;2023-07-20T01:14:17;27.30;99.90
10175;DHT22;18221;38.704;0.152;2023-07-20T01:16:46;27.30;99.90
10175;DHT22;18221;38.704;0.152;2023-07-20T01:19:17;27.30;99.90
10175;DHT22;18221;38.704;0.152;2023-07-20T01:21:50;27.20;99.90
10175;DHT22;18221;38.704;0.152;2023-07-20T01:24:57;27.20;99.90
10175;DHT22;18221;38.704;0.152;2023-07-20T01:28:14;27.20;99.90
10175;DHT22;18221;38.704;0.152;2023-07-20T01:31:21;27.20;99.90
10175;DHT22;18221;38.704;0.152;2023-07-20T01:33:54;27.20;99.90
10175;DHT22;18221;38.704;0.152;2023-07-20T01:36:26;27.20;99.90
10175;DHT22;18221;38.704;0.152;2023-07-20T01:39:01;27.30;99.90
10175;DHT22;18221;38.704;0.152;2023-07-20T01:41:30;27.30;99.90
10175;DHT22;18221;38.704;0.152;2023-07-20T01:43:58;27.30;99.90
10175;DHT22;18221;38.704;0.152;2023-07-20T01:46:28;27.30;99.90
10175;DHT22;18221;38.704;0.152;2023-07-20T01:48:57;27.30;99.90
10175;DHT22;18221;38.704;0.152;2023-07-20T01:51:25;27.30;99.90
10175;DHT22;18221;38.704;0.152;2023-07-20T01:53:53;26.70;99.90
10175;DHT22;18221;38.704;0.152;2023-07-20T01:56:21;27.30;99.90
10175;DHT22;18221;38.704;0.152;2023-07-20T01:58:49;27.30;99.90
10175;DHT22;18221;38.704;0.152;2023-07-20T02:01:18;27.30;99.90
10175;DHT22;18221;38.704;0.152;2023-07-20T02:03:47;27.40;99.90
10175;DHT22;18221;38.704;0.152;2023-07-20T02:06:15;27.30;99.90
10175;DHT22;18221;38.704;0.152;2023-07-20T02:08:44;27.30;99.90
10175;DHT22;18221;38.704;0.152;2023-07-20T02:11:12;27.40;99.90
10175;DHT22;18221;38.704;0.152;2023-07-20T02:13:40;27.30;99.90
10175;DHT22;18221;38.704;0.152;2023-07-20T02:16:08;27.30;99.90
10175;DHT22;18221;38.704;0.152;2023-07-20T02:18:37;26.70;99.90
10175;DHT22;18221;38.704;0.152;2023-07-20T02:21:06;27.30;99.90
10175;DHT22;18221;38.704;0.152;2023-07-20T02:23:35;27.30;99.90
10175;DHT22;18221;38.704;0.152;2023-07-20T02:26:03;27.30;99.90
10175;DHT22;18221;38.704;0.152;2023-07-20T02:28:32;27.30;99.90
10175;DHT22;18221;38.704;0.152;2023-07-20T02:31:00;27.30;99.90
10175;DHT22;18221;38.704;0.152;2023-07-20T02:33:28;27.30;99.90
10175;DHT22;18221;38.704;0.152;2023-07-20T02:35:56;27.30;99.90
10175;DHT22;18221;38.704;0.152;2023-07-20T02:38:25;27.30;99.90
10175;DHT22;18221;38.704;0.152;2023-07-20T02:40:54;27.30;99.90
10175;DHT22;18221;38.704;0.152;2023-07-20T02:43:22;27.20;99.90
10175;DHT22;18221;38.704;0.152;2023-07-20T02:45:51;27.20;99.90
10175;DHT22;18221;38.704;0.152;2023-07-20T02:48:19;27.30;99.90
10175;DHT22;18221;38.704;0.152;2023-07-20T02:50:47;27.20;99.90
10175;DHT22;18221;38.704;0.152;2023-07-20T02:53:15;27.20;99.90
10175;DHT22;18221;38.704;0.152;2023-07-20T02:55:44;27.20;99.90
10175;DHT22;18221;38.704;0.152;2023-07-20T02:58:13;27.20;99.90
10175;DHT22;18221;38.704;0.152;2023-07-20T03:00:43;27.30;99.90
10175;DHT22;18221;38.704;0.152;2023-07-20T03:03:11;27.30;99.90
10175;DHT22;18221;38.704;0.152;2023-07-20T03:05:41;27.30;99.90
10175;DHT22;18221;38.704;0.152;2023-07-20T03:11:16;27.30;99.90
10175;DHT22;18221;38.704;0.152;2023-07-20T03:13:45;27.30;99.90
10175;DHT22;18221;38.704;0.152;2023-07-20T03:16:17;27.30;99.90
10175;DHT22;18221;38.704;0.152;2023-07-20T03:18:46;27.20;99.90
10175;DHT22;18221;38.704;0.152;2023-07-20T03:21:14;27.30;99.90
10175;DHT22;18221;38.704;0.152;2023-07-20T03:23:43;27.30;99.90
10175;DHT22;18221;38.704;0.152;2023-07-20T03:26:11;27.20;99.90
10175;DHT22;18221;38.704;0.152;2023-07-20T03:28:41;27.30;99.90
10175;DHT22;18221;38.704;0.152;2023-07-20T03:31:09;27.30;99.90
10175;DHT22;18221;38.704;0.152;2023-07-20T03:33:37;27.30;99.90
10175;DHT22;18221;38.704;0.152;2023-07-20T03:36:05;27.30;99.90
10175;DHT22;18221;38.704;0.152;2023-07-20T03:38:33;27.30;99.90
10175;DHT22;18221;38.704;0.152;2023-07-20T03:41:01;27.30;99.90
10175;DHT22;18221;38.704;0.152;2023-07-20T03:43:29;27.30;99.90
10175;DHT22;18221;38.704;0.152;2023-07-20T03:45:59;27.20;99.90
10175;DHT22;18221;38.704;0.152;2023-07-20T03:48:27;27.30;99.90
10175;DHT22;18221;38.704;0.152;2023-07-20T03:50:55;27.30;99.90
10175;DHT22;18221;38.704;0.152;2023-07-20T03:53:24;27.30;99.90
10175;DHT22;18221;38.704;0.152;2023-07-20T03:55:52;27.20;99.90
10175;DHT22;18221;38.704;0.152;2023-07-20T03:58:21;27.20;99.90
10175;DHT22;18221;38.704;0.152;2023-07-20T04:00:50;27.20;99.90
10175;DHT22;18221;38.704;0.152;2023-07-20T04:03:21;27.20;99.90
10175;DHT22;18221;38.704;0.152;2023-07-20T04:05:54;27.10;99.90
10175;DHT22;18221;38.704;0.152;2023-07-20T04:08:23;27.20;99.90
10175;DHT22;18221;38.704;0.152;2023-07-20T04:10:51;27.10;99.90
10175;DHT22;18221;38.704;0.152;2023-07-20T04:13:20;27.10;99.90
10175;DHT22;18221;38.704;0.152;2023-07-20T04:15:49;27.10;99.90
10175;DHT22;18221;38.704;0.152;2023-07-20T04:18:17;27.10;99.90
10175;DHT22;18221;38.704;0.152;2023-07-20T04:20:47;27.10;99.90
10175;DHT22;18221;38.704;0.152;2023-07-20T04:23:15;27.10;99.90
10175;DHT22;18221;38.704;0.152;2023-07-20T04:25:43;27.10;99.90
10175;DHT22;18221;38.704;0.152;2023-07-20T04:28:11;27.10;99.90
10175;DHT22;18221;38.704;0.152;2023-07-20T04:30:40;27.10;99.90
10175;DHT22;18221;38.704;0.152;2023-07-20T04:33:08;27.10;99.90
10175;DHT22;18221;38.704;0.152;2023-07-20T04:35:48;27.10;99.90
10175;DHT22;18221;38.704;0.152;2023-07-20T04:38:17;27.10;99.90
10175;DHT22;18221;38.704;0.152;2023-07-20T04:40:46;27.10;99.90
10175;DHT22;18221;38.704;0.152;2023-07-20T04:43:15;27.00;99.90
10175;DHT22;18221;38.704;0.152;2023-07-20T04:45:44;27.00;99.90
10175;DHT22;18221;38.704;0.152;2023-07-20T04:48:14;26.90;99.90
10175;DHT22;18221;38.704;0.152;2023-07-20T04:50:45;27.00;99.90
10175;DHT22;18221;38.704;0.152;2023-07-20T04:53:13;26.90;99.90
10175;DHT22;18221;38.704;0.152;2023-07-20T04:55:48;26.90;99.90
10175;DHT22;18221;38.704;0.152;2023-07-20T04:58:18;26.90;99.90
10175;DHT22;18221;38.704;0.152;2023-07-20T05:00:46;26.90;99.90
10175;DHT22;18221;38.704;0.152;2023-07-20T05:03:15;26.90;99.90
10175;DHT22;18221;38.704;0.152;2023-07-20T05:05:43;26.90;99.90
10175;DHT22;18221;38.704;0.152;2023-07-20T05:08:13;26.80;99.90
10175;DHT22;18221;38.704;0.152;2023-07-20T05:10:42;26.80;99.90
10175;DHT22;18221;38.704;0.152;2023-07-20T05:13:10;26.80;99.90
10175;DHT22;18221;38.704;0.152;2023-07-20T05:15:38;26.80;99.90
10175;DHT22;18221;38.704;0.152;2023-07-20T05:18:06;26.80;99.90
10175;DHT22;18221;38.704;0.152;2023-07-20T05:20:35;26.70;99.90
10175;DHT22;18221;38.704;0.152;2023-07-20T05:23:04;26.70;99.90
10175;DHT22;18221;38.704;0.152;2023-07-20T05:25:33;26.80;99.90
10175;DHT22;18221;38.704;0.152;2023-07-20T05:28:01;26.70;99.90
10175;DHT22;18221;38.704;0.152;2023-07-20T05:30:29;26.70;99.90
10175;DHT22;18221;38.704;0.152;2023-07-20T05:32:57;26.70;99.90
10175;DHT22;18221;38.704;0.152;2023-07-20T05:35:26;26.70;99.90
10175;DHT22;18221;38.704;0.152;2023-07-20T05:37:55;26.70;99.90
10175;DHT22;18221;38.704;0.152;2023-07-20T05:40:25;26.70;99.90
10175;DHT22;18221;38.704;0.152;2023-07-20T05:42:53;26.70;99.90
10175;DHT22;18221;38.704;0.152;2023-07-20T05:45:23;26.70;99.90
10175;DHT22;18221;38.704;0.152;2023-07-20T05:47:50;26.70;99.90
10175;DHT22;18221;38.704;0.152;2023-07-20T05:50:18;26.70;99.90
10175;DHT22;18221;38.704;0.152;2023-07-20T05:52:47;26.70;99.90
10175;DHT22;18221;38.704;0.152;2023-07-20T05:55:15;26.60;99.90
10175;DHT22;18221;38.704;0.152;2023-07-20T05:57:44;26.60;99.90
10175;DHT22;18221;38.704;0.152;2023-07-20T06:00:14;26.60;99.90
10175;DHT22;18221;38.704;0.152;2023-07-20T06:02:45;26.60;99.90
10175;DHT22;18221;38.704;0.152;2023-07-20T06:05:16;26.60;99.90
10175;DHT22;18221;38.704;0.152;2023-07-20T06:07:44;26.70;99.90
10175;DHT22;18221;38.704;0.152;2023-07-20T06:10:12;26.70;99.90
10175;DHT22;18221;38.704;0.152;2023-07-20T06:12:40;26.70;99.90
10175;DHT22;18221;38.704;0.152;2023-07-20T06:18:02;26.80;99.90
10175;DHT22;18221;38.704;0.152;2023-07-20T06:20:30;26.80;99.90
10175;DHT22;18221;38.704;0.152;2023-07-20T06:22:58;26.40;99.90
10175;DHT22;18221;38.704;0.152;2023-07-20T06:25:26;26.80;99.90
10175;DHT22;18221;38.704;0.152;2023-07-20T06:27:55;26.70;99.90
10175;DHT22;18221;38.704;0.152;2023-07-20T06:30:24;26.50;99.90
10175;DHT22;18221;38.704;0.152;2023-07-20T06:32:52;26.70;99.90
10175;DHT22;18221;38.704;0.152;2023-07-20T06:35:22;26.70;99.90
10175;DHT22;18221;38.704;0.152;2023-07-20T06:37:49;26.70;99.90
10175;DHT22;18221;38.704;0.152;2023-07-20T06:40:18;26.70;99.90
10175;DHT22;18221;38.704;0.152;2023-07-20T06:42:46;26.70;99.90
10175;DHT22;18221;38.704;0.152;2023-07-20T06:45:14;26.70;99.90
10175;DHT22;18221;38.704;0.152;2023-07-20T06:47:43;26.60;99.90
10175;DHT22;18221;38.704;0.152;2023-07-20T06:50:11;26.60;99.90
10175;DHT22;18221;38.704;0.152;2023-07-20T06:52:41;26.70;99.90
10175;DHT22;18221;38.704;0.152;2023-07-20T06:55:09;26.70;99.90
10175;DHT22;18221;38.704;0.152;2023-07-20T06:57:38;26.80;99.90
10175;DHT22;18221;38.704;0.152;2023-07-20T07:00:07;26.80;99.90
10175;DHT22;18221;38.704;0.152;2023-07-20T07:02:36;26.90;99.90
10175;DHT22;18221;38.704;0.152;2023-07-20T07:05:04;26.90;99.90
10175;DHT22;18221;38.704;0.152;2023-07-20T07:07:33;27.00;99.90
10175;DHT22;18221;38.704;0.152;2023-07-20T07:10:03;27.10;99.90
10175;DHT22;18221;38.704;0.152;2023-07-20T07:12:32;27.10;99.90
10175;DHT22;18221;38.704;0.152;2023-07-20T07:15:00;27.20;99.90
10175;DHT22;18221;38.704;0.152;2023-07-20T07:17:28;27.20;99.90
10175;DHT22;18221;38.704;0.152;2023-07-20T07:19:57;27.30;99.90
10175;DHT22;18221;38.704;0.152;2023-07-20T07:22:25;27.30;99.90
10175;DHT22;18221;38.704;0.152;2023-07-20T07:24:54;27.30;99.90
10175;DHT22;18221;38.704;0.152;2023-07-20T07:27:23;27.30;99.90
10175;DHT22;18221;38.704;0.152;2023-07-20T07:29:51;27.30;99.90
10175;DHT22;18221;38.704;0.152;2023-07-20T07:32:19;27.30;99.90
10175;DHT22;18221;38.704;0.152;2023-07-20T07:34:47;27.30;99.90
10175;DHT22;18221;38.704;0.152;2023-07-20T07:37:15;27.40;99.90
10175;DHT22;18221;38.704;0.152;2023-07-20T07:39:45;27.40;99.90
10175;DHT22;18221;38.704;0.152;2023-07-20T07:42:13;27.40;99.90
10175;DHT22;18221;38.704;0.152;2023-07-20T07:44:43;27.40;99.90
10175;DHT22;18221;38.704;0.152;2023-07-20T07:47:11;27.40;99.90
10175;DHT22;18221;38.704;0.152;2023-07-20T07:49:39;27.40;99.90
10175;DHT22;18221;38.704;0.152;2023-07-20T07:52:07;27.50;99.90
10175;DHT22;18221;38.704;0.152;2023-07-20T07:54:36;27.60;99.90
10175;DHT22;18221;38.704;0.152;2023-07-20T07:57:04;27.60;99.90
10175;DHT22;18221;38.704;0.152;2023-07-20T07:59:33;27.60;99.90
10175;DHT22;18221;38.704;0.152;2023-07-20T08:02:06;27.70;99.90
10175;DHT22;18221;38.704;0.152;2023-07-20T08:04:34;27.80;99.90
10175;DHT22;18221;38.704;0.152;2023-07-20T08:07:04;27.80;99.90
10175;DHT22;18221;38.704;0.152;2023-07-20T08:09:33;27.70;99.90
10175;DHT22;18221;38.704;0.152;2023-07-20T08:12:01;27.80;99.90
10175;DHT22;18221;38.704;0.152;2023-07-20T08:14:29;27.90;99.90
10175;DHT22;18221;38.704;0.152;2023-07-20T08:16:57;28.00;99.90
10175;DHT22;18221;38.704;0.152;2023-07-20T08:19:27;28.00;99.90
10175;DHT22;18221;38.704;0.152;2023-07-20T08:21:55;28.20;99.90
10175;DHT22;18221;38.704;0.152;2023-07-20T08:24:23;28.20;99.90
10175;DHT22;18221;38.704;0.152;2023-07-20T08:26:51;28.30;99.90
10175;DHT22;18221;38.704;0.152;2023-07-20T08:29:19;28.40;99.90
10175;DHT22;18221;38.704;0.152;2023-07-20T08:31:47;28.40;99.90
10175;DHT22;18221;38.704;0.152;2023-07-20T08:34:15;28.40;99.90
10175;DHT22;18221;38.704;0.152;2023-07-20T08:36:45;28.50;99.90
10175;DHT22;18221;38.704;0.152;2023-07-20T08:39:13;28.50;99.90
10175;DHT22;18221;38.704;0.152;2023-07-20T08:41:42;28.70;99.90
10175;DHT22;18221;38.704;0.152;2023-07-20T08:44:11;28.70;99.90
10175;DHT22;18221;38.704;0.152;2023-07-20T08:46:40;28.80;99.90
10175;DHT22;18221;38.704;0.152;2023-07-20T08:49:11;28.70;99.90
10175;DHT22;18221;38.704;0.152;2023-07-20T08:51:39;28.60;99.90
10175;DHT22;18221;38.704;0.152;2023-07-20T08:54:12;28.40;99.90
10175;DHT22;18221;38.704;0.152;2023-07-20T08:56:41;28.20;99.90
10175;DHT22;18221;38.704;0.152;2023-07-20T08:59:13;28.10;99.90
10175;DHT22;18221;38.704;0.152;2023-07-20T09:01:45;28.10;99.90
10175;DHT22;18221;38.704;0.152;2023-07-20T09:04:14;28.20;99.90
10175;DHT22;18221;38.704;0.152;2023-07-20T09:06:42;28.30;99.90
10175;DHT22;18221;38.704;0.152;2023-07-20T09:09:13;28.30;99.90
10175;DHT22;18221;38.704;0.152;2023-07-20T09:11:41;28.60;99.90
10175;DHT22;18221;38.704;0.152;2023-07-20T09:14:10;28.60;99.90
10175;DHT22;18221;38.704;0.152;2023-07-20T09:16:48;28.70;99.90
10175;DHT22;18221;38.704;0.152;2023-07-20T09:19:17;28.70;99.90
10175;DHT22;18221;38.704;0.152;2023-07-20T09:21:46;28.70;99.90
10175;DHT22;18221;38.704;0.152;2023-07-20T09:24:17;28.80;99.90
10175;DHT22;18221;38.704;0.152;2023-07-20T09:26:46;28.90;99.90
10175;DHT22;18221;38.704;0.152;2023-07-20T09:29:19;29.00;99.90
10175;DHT22;18221;38.704;0.152;2023-07-20T09:31:59;29.10;99.90
10175;DHT22;18221;38.704;0.152;2023-07-20T09:34:29;29.20;99.90
10175;DHT22;18221;38.704;0.152;2023-07-20T09:36:58;29.30;99.90
10175;DHT22;18221;38.704;0.152;2023-07-20T09:39:29;29.40;99.90
10175;DHT22;18221;38.704;0.152;2023-07-20T09:42:00;29.50;99.90
10175;DHT22;18221;38.704;0.152;2023-07-20T09:44:30;29.70;99.90
10175;DHT22;18221;38.704;0.152;2023-07-20T09:46:59;29.70;99.90
10175;DHT22;18221;38.704;0.152;2023-07-20T09:49:27;29.60;99.90
10175;DHT22;18221;38.704;0.152;2023-07-20T09:51:57;29.50;99.90
10175;DHT22;18221;38.704;0.152;2023-07-20T09:54:30;29.50;99.90
10175;DHT22;18221;38.704;0.152;2023-07-20T09:57:00;29.50;99.90
10175;DHT22;18221;38.704;0.152;2023-07-20T09:59:30;29.50;99.90
10175;DHT22;18221;38.704;0.152;2023-07-20T10:01:58;29.60;99.90
10175;DHT22;18221;38.704;0.152;2023-07-20T10:04:33;29.60;99.90
10175;DHT22;18221;38.704;0.152;2023-07-20T10:07:06;29.60;99.90
10175;DHT22;18221;38.704;0.152;2023-07-20T10:09:40;29.60;99.90
10175;DHT22;18221;38.704;0.152;2023-07-20T10:12:11;29.70;99.90
10175;DHT22;18221;38.704;0.152;2023-07-20T10:14:42;29.80;99.90
10175;DHT22;18221;38.704;0.152;2023-07-20T10:17:22;29.80;99.90
10175;DHT22;18221;38.704;0.152;2023-07-20T10:19:57;29.70;99.90
10175;DHT22;18221;38.704;0.152;2023-07-20T10:22:33;29.70;99.90
10175;DHT22;18221;38.704;0.152;2023-07-20T10:25:07;29.60;99.90
10175;DHT22;18221;38.704;0.152;2023-07-20T10:27:38;29.60;99.90
10175;DHT22;18221;38.704;0.152;2023-07-20T10:30:07;29.60;99.90
10175;DHT22;18221;38.704;0.152;2023-07-20T10:32:36;29.70;99.90
10175;DHT22;18221;38.704;0.152;2023-07-20T10:35:13;29.60;99.90
10175;DHT22;18221;38.704;0.152;2023-07-20T10:37:50;29.60;99.90
10175;DHT22;18221;38.704;0.152;2023-07-20T10:40:28;29.70;99.90
10175;DHT22;18221;38.704;0.152;2023-07-20T10:43:02;29.70;99.90
10175;DHT22;18221;38.704;0.152;2023-07-20T10:45:39;28.50;99.90
10175;DHT22;18221;38.704;0.152;2023-07-20T10:48:15;29.80;99.90
10175;DHT22;18221;38.704;0.152;2023-07-20T10:50:46;29.80;99.90
10175;DHT22;18221;38.704;0.152;2023-07-20T10:53:37;29.80;99.90
10175;DHT22;18221;38.704;0.152;2023-07-20T10:56:12;30.00;99.90
10175;DHT22;18221;38.704;0.152;2023-07-20T10:58:41;30.10;99.90
10175;DHT22;18221;38.704;0.152;2023-07-20T11:01:13;30.20;99.90
10175;DHT22;18221;38.704;0.152;2023-07-20T11:03:43;30.30;99.90
10175;DHT22;18221;38.704;0.152;2023-07-20T11:06:33;30.40;99.90
10175;DHT22;18221;38.704;0.152;2023-07-20T11:09:07;30.40;99.90
10175;DHT22;18221;38.704;0.152;2023-07-20T11:11:39;30.50;99.90
10175;DHT22;18221;38.704;0.152;2023-07-20T11:14:09;30.50;99.90
10175;DHT22;18221;38.704;0.152;2023-07-20T11:16:40;30.40;99.90
10175;DHT22;18221;38.704;0.152;2023-07-20T11:19:17;30.30;99.90
10175;DHT22;18221;38.704;0.152;2023-07-20T11:21:47;29.00;99.90
10175;DHT22;18221;38.704;0.152;2023-07-20T11:24:18;29.90;99.90
10175;DHT22;18221;38.704;0.152;2023-07-20T11:26:49;29.70;99.90
10175;DHT22;18221;38.704;0.152;2023-07-20T11:29:20;29.50;99.90
10175;DHT22;18221;38.704;0.152;2023-07-20T11:31:51;29.50;99.90
10175;DHT22;18221;38.704;0.152;2023-07-20T11:34:20;29.60;99.90
10175;DHT22;18221;38.704;0.152;2023-07-20T11:36:49;29.60;99.90
10175;DHT22;18221;38.704;0.152;2023-07-20T11:39:19;29.60;99.90
10175;DHT22;18221;38.704;0.152;2023-07-20T11:41:51;29.60;99.90
10175;DHT22;18221;38.704;0.152;2023-07-20T11:44:22;29.70;99.90
10175;DHT22;18221;38.704;0.152;2023-07-20T11:47:00;29.60;99.90
10175;DHT22;18221;38.704;0.152;2023-07-20T11:49:30;29.70;99.90
10175;DHT22;18221;38.704;0.152;2023-07-20T11:52:01;29.80;99.90
10175;DHT22;18221;38.704;0.152;2023-07-20T11:54:30;29.90;99.90
10175;DHT22;18221;38.704;0.152;2023-07-20T11:57:03;30.00;99.90
10175;DHT22;18221;38.704;0.152;2023-07-20T11:59:32;30.20;99.90
10175;DHT22;18221;38.704;0.152;2023-07-20T12:02:01;30.20;99.90
10175;DHT22;18221;38.704;0.152;2023-07-20T12:04:31;30.40;99.90
10175;DHT22;18221;38.704;0.152;2023-07-20T12:06:59;30.30;99.90
10175;DHT22;18221;38.704;0.152;2023-07-20T12:09:28;30.20;99.90
10175;DHT22;18221;38.704;0.152;2023-07-20T12:11:57;30.10;99.90
10175;DHT22;18221;38.704;0.152;2023-07-20T12:14:26;30.00;99.90
10175;DHT22;18221;38.704;0.152;2023-07-20T12:16:54;30.00;99.90
10175;DHT22;18221;38.704;0.152;2023-07-20T12:19:25;30.00;99.90
10175;DHT22;18221;38.704;0.152;2023-07-20T12:21:57;29.90;99.90
10175;DHT22;18221;38.704;0.152;2023-07-20T12:24:26;29.80;99.90
10175;DHT22;18221;38.704;0.152;2023-07-20T12:26:56;29.80;99.90
10175;DHT22;18221;38.704;0.152;2023-07-20T12:29:28;29.90;99.90
10175;DHT22;18221;38.704;0.152;2023-07-20T12:31:57;30.10;99.90
10175;DHT22;18221;38.704;0.152;2023-07-20T12:34:25;30.40;99.90
10175;DHT22;18221;38.704;0.152;2023-07-20T12:36:53;30.40;99.90
10175;DHT22;18221;38.704;0.152;2023-07-20T12:39:23;30.50;99.90
10175;DHT22;18221;38.704;0.152;2023-07-20T12:41:51;30.50;99.90
10175;DHT22;18221;38.704;0.152;2023-07-20T12:44:19;30.60;99.90
10175;DHT22;18221;38.704;0.152;2023-07-20T12:46:49;30.50;99.90
10175;DHT22;18221;38.704;0.152;2023-07-20T12:49:17;30.40;99.90
10175;DHT22;18221;38.704;0.152;2023-07-20T12:51:45;30.20;99.90
10175;DHT22;18221;38.704;0.152;2023-07-20T12:54:13;30.20;99.90
10175;DHT22;18221;38.704;0.152;2023-07-20T12:56:41;30.00;99.90
10175;DHT22;18221;38.704;0.152;2023-07-20T12:59:09;29.90;99.90
10175;DHT22;18221;38.704;0.152;2023-07-20T13:01:37;29.80;99.90
10175;DHT22;18221;38.704;0.152;2023-07-20T13:04:09;29.70;99.90
10175;DHT22;18221;38.704;0.152;2023-07-20T13:06:37;29.60;99.90
10175;DHT22;18221;38.704;0.152;2023-07-20T13:09:07;29.60;99.90
10175;DHT22;18221;38.704;0.152;2023-07-20T13:11:35;29.60;99.90
10175;DHT22;18221;38.704;0.152;2023-07-20T13:14:04;29.70;99.90
10175;DHT22;18221;38.704;0.152;2023-07-20T13:16:32;29.60;99.90
10175;DHT22;18221;38.704;0.152;2023-07-20T13:19:01;29.90;99.90
10175;DHT22;18221;38.704;0.152;2023-07-20T13:21:31;29.90;99.90
10175;DHT22;18221;38.704;0.152;2023-07-20T13:23:59;29.90;99.90
10175;DHT22;18221;38.704;0.152;2023-07-20T13:26:27;29.90;99.90
10175;DHT22;18221;38.704;0.152;2023-07-20T13:28:55;30.20;99.90
10175;DHT22;18221;38.704;0.152;2023-07-20T13:31:24;30.30;99.90
10175;DHT22;18221;38.704;0.152;2023-07-20T13:33:52;30.50;99.90
10175;DHT22;18221;38.704;0.152;2023-07-20T13:36:20;30.60;99.90
10175;DHT22;18221;38.704;0.152;2023-07-20T13:38:50;30.70;99.90
10175;DHT22;18221;38.704;0.152;2023-07-20T13:41:19;30.90;99.90
10175;DHT22;18221;38.704;0.152;2023-07-20T13:43:47;31.20;99.90
10175;DHT22;18221;38.704;0.152;2023-07-20T13:46:15;31.20;99.90
10175;DHT22;18221;38.704;0.152;2023-07-20T13:48:43;31.20;99.90
10175;DHT22;18221;38.704;0.152;2023-07-20T13:51:11;31.30;99.90
10175;DHT22;18221;38.704;0.152;2023-07-20T13:53:39;31.30;99.90
10175;DHT22;18221;38.704;0.152;2023-07-20T13:56:09;31.40;99.90
10175;DHT22;18221;38.704;0.152;2023-07-20T13:58:37;31.40;99.90
10175;DHT22;18221;38.704;0.152;2023-07-20T14:01:05;31.40;99.90
10175;DHT22;18221;38.704;0.152;2023-07-20T14:03:33;31.30;99.90
10175;DHT22;18221;38.704;0.152;2023-07-20T14:06:02;31.20;99.90
10175;DHT22;18221;38.704;0.152;2023-07-20T14:08:30;31.00;99.90
10175;DHT22;18221;38.704;0.152;2023-07-20T14:10:58;30.80;99.90
10175;DHT22;18221;38.704;0.152;2023-07-20T14:13:28;30.70;99.90
10175;DHT22;18221;38.704;0.152;2023-07-20T14:15:56;30.60;99.90
10175;DHT22;18221;38.704;0.152;2023-07-20T14:18:25;30.40;99.90
10175;DHT22;18221;38.704;0.152;2023-07-20T14:20:53;30.20;99.90
10175;DHT22;18221;38.704;0.152;2023-07-20T14:23:21;30.20;99.90
10175;DHT22;18221;38.704;0.152;2023-07-20T14:25:49;30.00;99.90
10175;DHT22;18221;38.704;0.152;2023-07-20T14:28:18;30.00;99.90
10175;DHT22;18221;38.704;0.152;2023-07-20T14:30:47;29.80;99.90
10175;DHT22;18221;38.704;0.152;2023-07-20T14:33:15;29.60;99.90
10175;DHT22;18221;38.704;0.152;2023-07-20T14:35:44;29.50;99.90
10175;DHT22;18221;38.704;0.152;2023-07-20T14:38:12;29.30;99.90
10175;DHT22;18221;38.704;0.152;2023-07-20T14:40:40;29.20;99.90
10175;DHT22;18221;38.704;0.152;2023-07-20T14:43:08;29.20;99.90
10175;DHT22;18221;38.704;0.152;2023-07-20T14:45:36;29.10;99.90
10175;DHT22;18221;38.704;0.152;2023-07-20T14:48:06;29.10;99.90
10175;DHT22;18221;38.704;0.152;2023-07-20T14:50:34;29.10;99.90
10175;DHT22;18221;38.704;0.152;2023-07-20T14:53:02;29.10;99.90
10175;DHT22;18221;38.704;0.152;2023-07-20T14:55:30;29.00;99.90
10175;DHT22;18221;38.704;0.152;2023-07-20T14:57:59;29.00;99.90
10175;DHT22;18221;38.704;0.152;2023-07-20T15:00:27;29.00;99.90
10175;DHT22;18221;38.704;0.152;2023-07-20T15:02:56;29.10;99.90
10175;DHT22;18221;38.704;0.152;2023-07-20T15:05:25;29.20;99.90
10175;DHT22;18221;38.704;0.152;2023-07-20T15:07:53;29.20;99.90
10175;DHT22;18221;38.704;0.152;2023-07-20T15:10:22;29.30;99.90
10175;DHT22;18221;38.704;0.152;2023-07-20T15:12:50;29.30;99.90
10175;DHT22;18221;38.704;0.152;2023-07-20T15:15:18;29.30;99.90
10175;DHT22;18221;38.704;0.152;2023-07-20T15:17:46;29.30;99.90
10175;DHT22;18221;38.704;0.152;2023-07-20T15:20:16;29.30;99.90
10175;DHT22;18221;38.704;0.152;2023-07-20T15:22:45;29.30;99.90
10175;DHT22;18221;38.704;0.152;2023-07-20T15:25:21;29.20;99.90
10175;DHT22;18221;38.704;0.152;2023-07-20T15:27:49;29.20;99.90
10175;DHT22;18221;38.704;0.152;2023-07-20T15:30:18;29.40;99.90
10175;DHT22;18221;38.704;0.152;2023-07-20T15:32:46;29.20;99.90
10175;DHT22;18221;38.704;0.152;2023-07-20T15:35:14;29.30;99.90
10175;DHT22;18221;38.704;0.152;2023-07-20T15:37:45;29.30;99.90
10175;DHT22;18221;38.704;0.152;2023-07-20T15:40:13;29.30;99.90
10175;DHT22;18221;38.704;0.152;2023-07-20T15:42:41;29.30;99.90
10175;DHT22;18221;38.704;0.152;2023-07-20T15:45:10;29.30;99.90
10175;DHT22;18221;38.704;0.152;2023-07-20T15:47:38;29.30;99.90
10175;DHT22;18221;38.704;0.152;2023-07-20T15:50:07;29.20;99.90
10175;DHT22;18221;38.704;0.152;2023-07-20T15:52:35;29.10;99.90
10175;DHT22;18221;38.704;0.152;2023-07-20T15:55:05;29.10;99.90
10175;DHT22;18221;38.704;0.152;2023-07-20T15:57:34;28.90;99.90
10175;DHT22;18221;38.704;0.152;2023-07-20T16:00:03;28.80;99.90
10175;DHT22;18221;38.704;0.152;2023-07-20T16:02:35;28.60;99.90